Time;durP1;ratioP1;P1;durP2;ratioP2;P2;SDS_P1;SDS_P2;PMS_P1;PMS_P2;Temp;Humidity;BMP_temperature;BMP_pressure;BME280_temperature;BME280_humidity;BME280_pressure;Samples;Min_cycle;Max_cycle;Signal;HPM_P1;HPM_P2
2024/01/19 00:01:16;;;;;;;8.77;5.70;;;;;;;10.44;76.53;93841.38;5052999;28;20236;-73
2024/01/19 00:03:42;;;;;;;6.35;4.93;;;;;;;10.49;76.35;93851.34;5052900;28;20512;-73
2024/01/19 00:06:07;;;;;;;5.37;4.83;;;;;;;10.65;76.02;93826.69;5053058;28;20244;-72
2024/01/19 00:08:33;;;;;;;7.20;4.78;;;;;;;10.76;75.27;93831.50;5054206;28;20185;-74
2024/01/19 00:10:58;;;;;;;6.78;4.93;;;;;;;10.76;75.36;93842.03;5053705;28;20221;-73
2024/01/19 00:13:23;;;;;;;6.43;4.60;;;;;;;10.75;75.66;93843.03;5053725;28;20218;-73
2024/01/19 00:15:49;;;;;;;5.23;4.70;;;;;;;10.75;75.81;93856.16;5049580;28;20245;-70
2024/01/19 00:18:14;;;;;;;6.57;4.80;;;;;;;10.70;75.98;93854.06;5069727;28;20272;-71
2024/01/19 00:20:39;;;;;;;7.70;5.22;;;;;;;10.65;75.56;93855.63;5050349;28;20193;-70
2024/01/19 00:23:05;;;;;;;7.30;4.77;;;;;;;10.62;76.00;93856.78;5054080;28;20220;-70
2024/01/19 00:25:30;;;;;;;6.80;4.90;;;;;;;10.68;76.00;93860.50;5048668;28;20287;-77
2024/01/19 00:27:56;;;;;;;6.25;4.97;;;;;;;10.71;76.05;93873.28;5051255;28;20240;-71
2024/01/19 00:30:21;;;;;;;6.33;4.73;;;;;;;10.56;76.33;93868.84;5048698;28;20218;-78
2024/01/19 00:32:47;;;;;;;6.77;5.90;;;;;;;10.64;76.00;93867.94;5052208;28;20190;-76
2024/01/19 00:35:12;;;;;;;5.83;5.23;;;;;;;10.64;75.91;93864.47;5050859;28;20210;-77
2024/01/19 00:37:37;;;;;;;6.17;5.57;;;;;;;10.65;76.49;93876.66;5052983;28;20218;-74
2024/01/19 00:40:11;;;;;;;7.10;6.17;;;;;;;10.54;76.54;93862.94;5047091;28;20221;-76
2024/01/19 00:42:40;;;;;;;7.22;5.82;;;;;;;10.59;76.43;93865.03;5046261;28;20237;-71
2024/01/19 00:45:07;;;;;;;5.77;5.27;;;;;;;10.63;76.35;93861.03;5051004;28;20232;-77
2024/01/19 00:47:34;;;;;;;8.40;6.37;;;;;;;10.64;76.70;93875.00;5051303;28;20181;-72
2024/01/19 00:50:00;;;;;;;7.03;6.10;;;;;;;10.66;76.40;93854.59;5050032;28;20269;-78
2024/01/19 00:52:25;;;;;;;6.77;5.70;;;;;;;10.63;76.24;93850.53;5053545;28;20217;-79
2024/01/19 00:54:50;;;;;;;8.13;5.80;;;;;;;10.58;76.40;93861.59;5052755;28;20241;-73
2024/01/19 00:57:16;;;;;;;9.10;6.27;;;;;;;10.59;76.43;93873.75;5068315;28;20324;-70
2024/01/19 00:59:41;;;;;;;6.70;6.00;;;;;;;10.53;76.77;93863.13;5050691;28;20207;-75
2024/01/19 01:02:07;;;;;;;8.23;7.37;;;;;;;10.41;77.16;93852.22;5053169;28;20186;-70
2024/01/19 01:04:32;;;;;;;7.50;6.70;;;;;;;10.48;77.08;93873.38;5053407;28;20224;-70
2024/01/19 01:06:57;;;;;;;8.77;7.10;;;;;;;10.52;76.85;93877.25;5048786;28;20229;-70
2024/01/19 01:09:23;;;;;;;10.20;7.78;;;;;;;10.60;76.75;93858.78;5052699;28;20300;-70
2024/01/19 01:11:48;;;;;;;7.77;6.83;;;;;;;10.56;76.80;93889.88;5038253;28;20222;-70
2024/01/19 01:14:15;;;;;;;9.20;8.07;;;;;;;10.36;77.45;93892.19;5048998;28;20181;-70
2024/01/19 01:16:41;;;;;;;8.80;7.90;;;;;;;10.32;77.59;93866.47;5053449;28;20217;-72
2024/01/19 01:19:06;;;;;;;10.57;7.63;;;;;;;10.50;77.29;93863.47;5051463;28;20226;-71
2024/01/19 01:21:32;;;;;;;8.87;7.57;;;;;;;10.43;77.40;93868.66;5051967;28;20300;-71
2024/01/19 01:23:57;;;;;;;9.80;7.33;;;;;;;10.44;77.75;93861.56;5048947;28;20221;-71
2024/01/19 01:26:22;;;;;;;8.73;7.27;;;;;;;10.30;77.46;93878.94;5052695;28;20201;-71
2024/01/19 01:28:48;;;;;;;7.70;6.90;;;;;;;10.40;77.57;93858.50;5050865;28;20225;-72
2024/01/19 01:31:13;;;;;;;8.23;7.43;;;;;;;10.43;77.33;93863.38;5048377;28;20225;-74
2024/01/19 01:33:39;;;;;;;7.67;6.97;;;;;;;10.41;77.07;93860.13;5052178;28;20216;-72
2024/01/19 01:36:04;;;;;;;6.80;6.10;;;;;;;10.43;76.61;93852.88;5052306;28;20229;-72
2024/01/19 01:38:30;;;;;;;7.93;5.90;;;;;;;10.42;76.75;93856.47;5052746;28;20198;-70
2024/01/19 01:40:55;;;;;;;6.97;6.27;;;;;;;10.58;76.18;93879.16;5052123;28;20213;-70
2024/01/19 01:43:25;;;;;;;6.40;5.73;;;;;;;10.45;76.47;93871.91;5051549;28;20636;-71
2024/01/19 01:45:51;;;;;;;7.70;5.37;;;;;;;10.42;76.22;93867.00;5050144;28;20220;-71
2024/01/19 01:48:23;;;;;;;6.50;5.90;;;;;;;10.47;76.44;93869.91;5066282;28;20223;-72
2024/01/19 01:50:49;;;;;;;6.13;5.53;;;;;;;10.45;76.49;93861.41;5042549;28;20185;-71
2024/01/19 01:53:18;;;;;;;6.60;5.77;;;;;;;10.51;76.55;93865.13;5050870;28;20182;-72
2024/01/19 01:55:46;;;;;;;8.10;5.93;;;;;;;10.50;76.32;93856.41;5049889;28;20225;-72
2024/01/19 01:58:13;;;;;;;6.57;5.88;;;;;;;10.50;76.41;93859.03;5047033;28;20238;-71
2024/01/19 02:00:39;;;;;;;6.70;5.50;;;;;;;10.57;76.21;93867.03;5051173;28;20221;-71
2024/01/19 02:03:06;;;;;;;6.97;6.37;;;;;;;10.55;76.03;93866.38;5048105;28;20332;-71
2024/01/19 02:05:32;;;;;;;6.68;6.07;;;;;;;10.54;76.42;93852.44;5050286;28;20209;-72
2024/01/19 02:07:57;;;;;;;6.20;5.60;;;;;;;10.32;76.71;93850.69;5050505;28;20224;-71
2024/01/19 02:10:23;;;;;;;6.00;5.50;;;;;;;10.40;76.75;93865.53;5048767;28;20217;-71
2024/01/19 02:12:49;;;;;;;7.83;5.30;;;;;;;10.43;75.98;93857.31;5051288;28;20228;-71
2024/01/19 02:15:22;;;;;;;7.67;5.40;;;;;;;10.39;76.80;93867.34;5050267;28;20229;-72
2024/01/19 02:17:51;;;;;;;7.07;5.83;;;;;;;10.29;77.11;93872.03;5048684;28;20203;-72
2024/01/19 02:20:17;;;;;;;9.63;6.97;;;;;;;10.31;77.32;93885.81;5051200;28;20214;-72
2024/01/19 02:22:44;;;;;;;8.00;6.00;;;;;;;10.30;76.79;93885.00;5050454;28;20263;-72
2024/01/19 02:25:11;;;;;;;6.77;5.83;;;;;;;10.27;76.76;93879.28;5049470;28;20222;-71
2024/01/19 02:27:37;;;;;;;6.10;5.40;;;;;;;10.28;76.81;93878.31;5049902;28;20217;-71
2024/01/19 02:30:03;;;;;;;5.87;5.37;;;;;;;10.27;76.76;93889.78;5050791;28;20244;-71
2024/01/19 02:32:28;;;;;;;4.97;4.47;;;;;;;10.23;76.49;93894.56;5035146;28;20189;-70
2024/01/19 02:34:53;;;;;;;6.20;4.90;;;;;;;10.23;76.16;93889.31;5051240;28;20289;-70
2024/01/19 02:37:20;;;;;;;5.78;4.68;;;;;;;10.17;76.54;93897.91;5051198;28;20217;-70
2024/01/19 02:39:45;;;;;;;5.50;4.95;;;;;;;10.12;76.44;93889.72;5052527;28;20220;-70
2024/01/19 02:42:11;;;;;;;6.67;4.47;;;;;;;10.09;76.34;93904.03;5053214;28;20225;-70
2024/01/19 02:44:36;;;;;;;4.53;4.00;;;;;;;10.04;76.32;93901.13;5071437;28;20273;-70
2024/01/19 02:47:02;;;;;;;5.00;4.50;;;;;;;10.04;76.19;93900.31;5052649;28;20201;-70
2024/01/19 02:49:28;;;;;;;4.63;4.10;;;;;;;10.06;76.20;93907.00;5051724;28;20276;-70
2024/01/19 02:51:54;;;;;;;4.47;3.83;;;;;;;10.05;76.13;93907.19;5048487;28;20313;-70
2024/01/19 02:54:19;;;;;;;4.87;4.20;;;;;;;10.12;75.51;93914.19;5053361;28;20225;-71
2024/01/19 02:56:44;;;;;;;7.60;4.60;;;;;;;10.03;76.23;93915.25;5053940;28;20198;-70
2024/01/19 02:59:10;;;;;;;4.60;4.20;;;;;;;10.07;76.09;93923.59;5047804;28;20181;-71
2024/01/19 03:01:36;;;;;;;6.10;4.30;;;;;;;10.04;75.99;93919.50;5048906;28;20300;-72
2024/01/19 03:04:02;;;;;;;5.00;4.30;;;;;;;9.99;75.38;93924.47;5053676;28;20217;-72
2024/01/19 03:06:27;;;;;;;5.60;4.80;;;;;;;9.88;75.70;93923.06;5068743;28;20272;-70
2024/01/19 03:08:53;;;;;;;6.20;3.93;;;;;;;9.86;76.11;93918.97;5054350;28;20181;-71
2024/01/19 03:11:18;;;;;;;6.70;3.97;;;;;;;9.93;75.55;93917.28;5051054;28;20197;-71
2024/01/19 03:13:43;;;;;;;4.30;3.90;;;;;;;9.86;76.06;93921.59;5050596;28;20221;-71
2024/01/19 03:16:09;;;;;;;5.83;4.60;;;;;;;9.82;75.94;93921.13;5054369;28;20312;-70
2024/01/19 03:18:34;;;;;;;6.70;4.60;;;;;;;9.85;76.12;93909.47;5053598;28;20218;-71
2024/01/19 03:21:00;;;;;;;6.23;4.53;;;;;;;9.86;75.77;93917.19;5070497;28;20227;-70
2024/01/19 03:23:25;;;;;;;5.50;4.00;;;;;;;9.94;75.59;93918.91;5054507;28;20182;-71
2024/01/19 03:25:51;;;;;;;5.93;4.33;;;;;;;9.87;75.68;93913.56;5052232;28;20221;-71
2024/01/19 03:28:16;;;;;;;5.23;4.70;;;;;;;9.83;75.43;93912.25;5053812;28;20221;-70
2024/01/19 03:30:42;;;;;;;5.10;4.53;;;;;;;9.74;75.78;93910.69;5068109;28;20240;-71
2024/01/19 03:33:07;;;;;;;8.63;4.53;;;;;;;9.83;75.62;93919.31;5052041;28;20217;-70
2024/01/19 03:35:33;;;;;;;6.73;4.80;;;;;;;9.79;75.42;93903.09;5048504;28;20213;-70
2024/01/19 03:37:58;;;;;;;4.40;4.00;;;;;;;9.67;75.19;93910.53;5053835;28;20217;-69
2024/01/19 03:40:23;;;;;;;4.93;4.30;;;;;;;9.69;75.23;93916.44;5054229;28;20225;-69
2024/01/19 03:42:49;;;;;;;5.27;4.40;;;;;;;9.65;75.61;93922.19;5052401;28;20229;-70
2024/01/19 03:45:14;;;;;;;6.67;4.60;;;;;;;9.46;76.28;93926.91;5044547;28;20241;-70
2024/01/19 03:47:41;;;;;;;4.77;4.30;;;;;;;9.62;75.65;93928.66;5050133;28;20196;-71
2024/01/19 03:50:08;;;;;;;4.77;3.77;;;;;;;9.66;75.10;93927.28;5053590;28;20186;-70
2024/01/19 03:52:34;;;;;;;4.50;4.07;;;;;;;9.61;75.26;93919.13;5052045;28;20217;-69
2024/01/19 03:55:00;;;;;;;6.07;3.70;;;;;;;9.54;75.25;93925.22;5053897;28;20255;-70
2024/01/19 03:57:26;;;;;;;4.87;4.00;;;;;;;9.55;75.11;93938.19;5051524;28;20229;-69
2024/01/19 03:59:51;;;;;;;5.53;3.77;;;;;;;9.52;75.10;93928.03;5051252;28;20200;-70
2024/01/19 04:02:17;;;;;;;4.50;3.60;;;;;;;9.53;75.01;93927.03;5053597;28;20186;-72
2024/01/19 04:04:42;;;;;;;4.87;3.83;;;;;;;9.59;75.02;93938.66;5060731;28;20225;-71
2024/01/19 04:07:08;;;;;;;4.37;3.97;;;;;;;9.48;75.17;93943.28;5050672;28;20264;-72
2024/01/19 04:09:33;;;;;;;6.20;4.20;;;;;;;9.48;75.06;93942.47;5053640;28;20221;-73
2024/01/19 04:11:58;;;;;;;4.47;3.43;;;;;;;9.60;74.62;93949.00;5050292;28;20234;-71
2024/01/19 04:14:24;;;;;;;3.87;3.57;;;;;;;9.65;74.87;93957.16;5050770;28;20195;-71
2024/01/19 04:16:49;;;;;;;3.50;3.20;;;;;;;9.65;74.64;93949.28;5049794;28;20336;-71
2024/01/19 04:19:15;;;;;;;4.50;3.13;;;;;;;9.64;74.34;93942.38;5053556;28;20267;-72
2024/01/19 04:21:40;;;;;;;4.43;3.07;;;;;;;9.67;74.25;93947.28;5053475;28;20263;-71
2024/01/19 04:24:05;;;;;;;5.17;3.57;;;;;;;9.71;74.24;93938.09;5054071;28;20217;-71
2024/01/19 04:26:31;;;;;;;3.57;3.27;;;;;;;9.69;74.10;93934.00;5051158;28;20790;-71
2024/01/19 04:28:56;;;;;;;4.10;3.10;;;;;;;9.76;74.02;93934.16;5045248;28;20224;-71
2024/01/19 04:31:22;;;;;;;3.53;3.13;;;;;;;9.75;73.58;93935.94;5052141;28;20222;-71
2024/01/19 04:33:48;;;;;;;5.10;3.77;;;;;;;9.60;73.50;93914.88;5053050;28;20223;-72
2024/01/19 04:36:13;;;;;;;3.33;3.03;;;;;;;9.66;73.28;93937.78;5051907;28;20263;-71
2024/01/19 04:38:39;;;;;;;4.10;3.23;;;;;;;9.64;73.55;93945.00;5069409;28;20250;-71
2024/01/19 04:41:05;;;;;;;4.30;3.37;;;;;;;9.69;73.12;93945.31;5053195;28;20256;-71
2024/01/19 04:43:31;;;;;;;4.73;3.47;;;;;;;9.68;73.22;93951.56;5051679;28;20248;-71
2024/01/19 04:45:57;;;;;;;4.57;3.37;;;;;;;9.63;72.85;93955.69;5053108;28;20244;-72
2024/01/19 04:48:22;;;;;;;3.40;3.00;;;;;;;9.67;72.87;93942.03;5050525;28;20261;-70
2024/01/19 04:50:48;;;;;;;3.07;2.77;;;;;;;9.66;72.97;93943.03;5052344;28;20280;-71
2024/01/19 04:53:13;;;;;;;3.10;2.70;;;;;;;9.74;73.01;93946.63;5051666;28;20178;-71
2024/01/19 04:55:38;;;;;;;3.13;2.83;;;;;;;9.61;73.20;93936.69;5052507;28;20221;-70
2024/01/19 04:58:04;;;;;;;3.27;2.90;;;;;;;9.45;73.83;93938.38;5050799;28;20232;-70
2024/01/19 05:00:29;;;;;;;4.53;3.67;;;;;;;9.57;73.61;93948.50;5049761;28;20222;-70
2024/01/19 05:02:55;;;;;;;9.47;8.37;;;;;;;9.46;73.60;93944.44;5051767;28;20290;-69
2024/01/19 05:05:20;;;;;;;5.43;4.50;;;;;;;9.40;74.06;93948.56;5052768;28;20188;-72
2024/01/19 05:07:47;;;;;;;5.77;4.00;;;;;;;9.54;73.63;93949.66;5052275;28;20229;-71
2024/01/19 05:10:12;;;;;;;4.97;3.53;;;;;;;9.63;73.28;93958.31;5050196;28;20233;-70
2024/01/19 05:12:38;;;;;;;4.23;3.83;;;;;;;9.58;73.60;93952.78;5049109;28;20225;-70
2024/01/19 05:15:04;;;;;;;4.03;3.40;;;;;;;9.65;73.06;93958.94;5045039;28;20296;-70
2024/01/19 05:17:29;;;;;;;3.60;3.30;;;;;;;9.57;73.34;93957.22;5050123;28;20189;-71
2024/01/19 05:19:55;;;;;;;4.63;3.77;;;;;;;9.60;73.17;93946.38;5050939;28;20275;-71
2024/01/19 05:22:21;;;;;;;4.10;3.70;;;;;;;9.57;73.57;93957.22;5050970;28;20225;-71
2024/01/19 05:24:47;;;;;;;4.17;3.73;;;;;;;9.63;73.09;93972.25;5052326;28;20224;-69
2024/01/19 05:27:13;;;;;;;3.73;3.43;;;;;;;9.54;73.23;93968.03;5044660;28;20241;-70
2024/01/19 05:29:38;;;;;;;4.87;3.63;;;;;;;9.67;73.35;93968.28;5050337;28;20242;-71
2024/01/19 05:32:04;;;;;;;3.87;3.47;;;;;;;9.73;72.95;93972.06;5044887;28;20186;-70
2024/01/19 05:34:29;;;;;;;3.60;3.30;;;;;;;9.71;73.26;93977.47;5035749;28;20228;-71
2024/01/19 05:36:55;;;;;;;4.23;3.23;;;;;;;9.76;73.01;93963.03;5025780;28;20221;-71
2024/01/19 05:39:20;;;;;;;3.63;3.10;;;;;;;9.79;72.84;93981.88;5025774;28;20234;-69
2024/01/19 05:41:46;;;;;;;4.10;3.13;;;;;;;9.83;72.58;93983.13;5044639;28;20221;-69
2024/01/19 05:44:11;;;;;;;4.77;3.27;;;;;;;9.72;72.54;93963.34;5067100;28;20234;-69
2024/01/19 05:46:37;;;;;;;5.23;3.40;;;;;;;9.63;73.32;93968.81;5051463;28;20244;-68
2024/01/19 05:49:02;;;;;;;3.80;3.30;;;;;;;9.76;72.65;93974.34;5051491;28;20225;-69
2024/01/19 05:51:28;;;;;;;4.40;3.50;;;;;;;9.78;72.55;93979.41;5048474;28;20304;-70
2024/01/19 05:53:53;;;;;;;7.97;4.90;;;;;;;9.74;72.58;93986.00;5065837;28;20186;-71
2024/01/19 05:56:19;;;;;;;6.30;5.23;;;;;;;9.61;72.90;93978.66;5051186;28;20268;-73
2024/01/19 05:58:44;;;;;;;5.77;5.17;;;;;;;9.62;72.88;93981.13;5049269;28;20241;-70
2024/01/19 06:01:10;;;;;;;5.73;5.13;;;;;;;9.60;72.88;93972.59;5049513;28;20252;-69
2024/01/19 06:03:35;;;;;;;8.30;5.57;;;;;;;9.59;72.84;93980.63;5065135;28;20213;-72
2024/01/19 06:06:02;;;;;;;7.60;5.87;;;;;;;9.46;73.60;93987.28;5051235;28;20227;-72
2024/01/19 06:08:28;;;;;;;6.73;5.47;;;;;;;9.51;73.08;93984.13;5050765;28;20215;-72
2024/01/19 06:10:54;;;;;;;7.30;6.40;;;;;;;9.40;73.47;94003.66;5049828;28;20285;-69
2024/01/19 06:13:19;;;;;;;7.00;5.80;;;;;;;9.28;73.73;93977.00;5049464;28;20296;-71
2024/01/19 06:15:45;;;;;;;11.20;7.37;;;;;;;9.37;73.61;93987.47;5050393;28;20308;-70
2024/01/19 06:18:10;;;;;;;7.57;6.23;;;;;;;9.40;73.47;93997.63;5045489;28;20217;-70
2024/01/19 06:20:41;;;;;;;7.30;6.43;;;;;;;9.41;73.51;93989.59;5065926;28;20220;-71
2024/01/19 06:23:07;;;;;;;7.83;6.20;;;;;;;9.31;73.23;93994.22;5050244;28;20198;-71
2024/01/19 06:25:32;;;;;;;7.60;6.13;;;;;;;9.31;73.33;93994.22;5046290;28;20225;-69
2024/01/19 06:27:58;;;;;;;8.63;6.30;;;;;;;9.30;73.55;93995.16;5048106;28;20271;-71
2024/01/19 06:30:24;;;;;;;8.67;6.53;;;;;;;9.33;73.47;93996.63;5061810;28;20213;-71
2024/01/19 06:32:49;;;;;;;7.57;4.63;;;;;;;9.34;73.46;94006.97;5048243;28;20326;-70
2024/01/19 06:35:15;;;;;;;5.33;4.53;;;;;;;9.25;72.99;94014.06;5051729;28;20325;-71
2024/01/19 06:37:40;;;;;;;6.67;5.10;;;;;;;9.33;73.24;94009.75;5050568;28;20224;-70
2024/01/19 06:40:10;;;;;;;7.70;5.10;;;;;;;9.23;73.78;94023.09;5049477;28;20228;-70
2024/01/19 06:42:36;;;;;;;8.27;4.93;;;;;;;9.28;73.79;94018.97;5049041;28;20224;-70
2024/01/19 06:45:03;;;;;;;7.13;4.83;;;;;;;9.32;73.53;94031.75;5047519;28;20225;-73
2024/01/19 06:47:28;;;;;;;7.47;5.83;;;;;;;9.40;73.56;94021.22;5050807;28;20189;-70
2024/01/19 06:49:54;;;;;;;6.83;5.43;;;;;;;9.47;73.38;94024.81;5063842;28;20217;-71
2024/01/19 06:52:19;;;;;;;8.27;4.87;;;;;;;9.42;73.06;94041.06;5047770;28;20209;-69
2024/01/19 06:54:44;;;;;;;6.10;5.07;;;;;;;9.34;73.36;94024.53;5049477;28;20230;-70
2024/01/19 06:57:10;;;;;;;6.70;5.67;;;;;;;9.39;73.25;94037.97;5048198;28;20261;-70
2024/01/19 06:59:36;;;;;;;6.47;5.20;;;;;;;9.39;73.73;94035.34;5050244;28;20193;-74
2024/01/19 07:02:01;;;;;;;5.30;4.73;;;;;;;9.45;73.64;94026.78;5050317;28;20186;-70
2024/01/19 07:04:26;;;;;;;7.27;5.20;;;;;;;9.46;73.24;94038.91;5048767;28;20217;-71
2024/01/19 07:06:52;;;;;;;8.00;6.40;;;;;;;9.58;72.83;94034.13;5047750;28;20248;-72
2024/01/19 07:09:18;;;;;;;7.90;4.93;;;;;;;9.66;72.57;94058.53;5066019;28;20224;-71
2024/01/19 07:11:44;;;;;;;5.37;4.70;;;;;;;9.60;72.58;94040.84;5047180;28;20193;-71
2024/01/19 07:14:09;;;;;;;4.53;4.07;;;;;;;9.65;72.25;94041.16;5047320;28;20196;-71
2024/01/19 07:16:39;;;;;;;6.13;4.67;;;;;;;9.81;71.88;94063.06;5049724;28;20305;-72
2024/01/19 07:19:05;;;;;;;7.40;5.53;;;;;;;9.75;72.04;94054.06;5063017;28;20218;-71
2024/01/19 07:21:30;;;;;;;7.27;5.60;;;;;;;9.83;71.86;94061.09;5045391;28;20229;-71
2024/01/19 07:23:56;;;;;;;10.27;5.73;;;;;;;9.78;72.42;94051.09;5049870;28;20225;-72
2024/01/19 07:26:21;;;;;;;7.20;6.50;;;;;;;9.78;72.37;94047.66;5053810;28;20217;-72
2024/01/19 07:28:46;;;;;;;7.63;6.37;;;;;;;9.78;72.21;94055.53;5049720;28;20217;-71
2024/01/19 07:31:12;;;;;;;6.70;5.97;;;;;;;9.93;71.78;94053.84;5052515;28;20232;-68
2024/01/19 07:33:37;;;;;;;6.87;5.87;;;;;;;10.02;72.05;94038.84;5049032;28;20221;-69
2024/01/19 07:36:03;;;;;;;7.30;5.63;;;;;;;9.96;72.46;94029.84;5051887;28;20289;-69
2024/01/19 07:38:28;;;;;;;7.90;6.60;;;;;;;10.15;72.35;94034.66;5054135;28;20193;-69
2024/01/19 07:40:54;;;;;;;8.07;5.50;;;;;;;10.20;71.73;94049.09;5052887;28;20217;-69
2024/01/19 07:43:19;;;;;;;6.30;5.70;;;;;;;10.16;71.50;94038.13;5050225;28;20214;-70
2024/01/19 07:45:45;;;;;;;7.57;5.30;;;;;;;10.30;71.08;94045.28;5048735;28;20305;-70
2024/01/19 07:48:10;;;;;;;7.50;5.77;;;;;;;10.44;70.96;94059.50;5053666;28;20217;-70
2024/01/19 07:50:36;;;;;;;9.20;6.27;;;;;;;10.32;71.17;94053.81;5052286;28;20272;-71
2024/01/19 07:53:01;;;;;;;7.37;6.13;;;;;;;10.52;70.70;94059.44;5065064;28;20185;-72
2024/01/19 07:55:27;;;;;;;9.40;7.30;;;;;;;10.31;71.24;94064.50;5053709;28;20222;-71
2024/01/19 07:57:52;;;;;;;9.07;8.00;;;;;;;10.24;71.47;94055.66;5069560;28;20269;-70
2024/01/19 08:00:17;;;;;;;9.70;8.17;;;;;;;10.24;71.21;94043.34;5049624;28;20213;-72
2024/01/19 08:02:44;;;;;;;9.18;8.05;;;;;;;10.34;71.14;94061.53;5048546;28;20185;-71
2024/01/19 08:05:10;;;;;;;8.73;7.83;;;;;;;10.43;71.17;94062.31;5052303;28;20180;-70
2024/01/19 08:07:37;;;;;;;10.73;8.63;;;;;;;10.38;71.46;94062.81;5049687;28;20218;-72
2024/01/19 08:10:03;;;;;;;11.13;8.85;;;;;;;10.38;71.52;94047.88;5050674;28;20222;-70
2024/01/19 08:12:28;;;;;;;13.73;10.77;;;;;;;10.47;71.56;94055.69;5052574;28;20237;-71
2024/01/19 08:14:56;;;;;;;16.73;12.00;;;;;;;10.69;71.07;94065.41;5069152;28;20296;-71
2024/01/19 08:17:22;;;;;;;9.57;7.60;;;;;;;10.79;70.35;94073.84;5052893;28;20186;-71
2024/01/19 08:19:47;;;;;;;7.72;6.95;;;;;;;10.73;69.84;94066.69;5051824;28;20239;-71
2024/01/19 08:22:13;;;;;;;9.35;8.35;;;;;;;10.81;69.31;94068.44;5066740;28;20287;-70
2024/01/19 08:24:38;;;;;;;8.27;7.37;;;;;;;10.98;68.63;94064.66;5048771;28;20222;-70
2024/01/19 08:27:04;;;;;;;7.75;6.88;;;;;;;10.76;70.54;94089.19;5049121;28;20351;-70
2024/01/19 08:29:32;;;;;;;11.98;9.50;;;;;;;10.76;70.14;94071.59;5051975;28;20186;-69
2024/01/19 08:31:58;;;;;;;8.10;7.13;;;;;;;10.94;69.44;94084.44;5052157;28;20227;-71
2024/01/19 08:34:24;;;;;;;7.93;7.07;;;;;;;10.98;69.50;94085.72;5051038;28;20213;-81
2024/01/19 08:36:49;;;;;;;9.30;6.87;;;;;;;11.12;69.13;94091.19;5050995;28;20240;-80
2024/01/19 08:39:14;;;;;;;9.53;7.33;;;;;;;11.13;68.98;94080.50;5049641;28;20214;-79
2024/01/19 08:41:42;;;;;;;8.00;5.43;;;;;;;11.25;68.23;94101.94;5050420;28;20268;-80
2024/01/19 08:44:07;;;;;;;7.90;5.17;;;;;;;11.37;67.42;94086.53;5049350;28;20185;-79
2024/01/19 08:46:34;;;;;;;9.17;6.00;;;;;;;11.37;66.95;94092.63;5050427;28;20225;-78
2024/01/19 08:49:00;;;;;;;7.33;5.60;;;;;;;11.51;66.92;94088.38;5050865;28;20253;-78
2024/01/19 08:51:28;;;;;;;8.02;5.60;;;;;;;11.59;66.59;94090.09;5047181;28;20635;-71
2024/01/19 08:53:54;;;;;;;7.73;4.60;;;;;;;11.55;66.65;94102.81;5045493;28;20282;-73
2024/01/19 08:56:22;;;;;;;7.28;3.83;;;;;;;11.57;66.63;94098.16;5051105;28;20293;-73
2024/01/19 08:58:48;;;;;;;6.67;3.90;;;;;;;11.54;66.13;94095.09;5050439;28;20264;-73
2024/01/19 09:01:19;;;;;;;10.37;5.00;;;;;;;11.48;66.03;94092.16;5052583;28;20225;-73
2024/01/19 09:03:45;;;;;;;8.30;4.50;;;;;;;11.54;65.92;94080.09;5049934;28;20221;-72
2024/01/19 09:06:11;;;;;;;6.60;4.40;;;;;;;11.60;65.96;94094.34;5047906;28;20237;-71
2024/01/19 09:08:43;;;;;;;10.87;5.03;;;;;;;11.65;65.54;94094.63;5052041;28;20182;-72
2024/01/19 09:11:12;;;;;;;6.73;5.70;;;;;;;11.70;65.78;94081.75;5066941;28;20197;-72
2024/01/19 09:13:38;;;;;;;6.20;4.72;;;;;;;11.62;65.66;94097.63;5050271;28;20248;-72
2024/01/19 09:16:11;;;;;;;6.47;4.83;;;;;;;11.69;65.73;94074.84;5050297;28;20378;-71
2024/01/19 09:18:37;;;;;;;6.43;4.70;;;;;;;11.80;65.48;94082.28;5050921;28;20226;-71
2024/01/19 09:21:03;;;;;;;6.77;4.40;;;;;;;11.88;64.81;94074.31;5046824;28;20292;-72
2024/01/19 09:23:28;;;;;;;7.80;5.10;;;;;;;11.85;64.84;94069.41;5063667;28;20182;-71
2024/01/19 09:25:54;;;;;;;6.45;4.20;;;;;;;11.87;64.37;94070.06;5051477;28;20309;-71
2024/01/19 09:28:19;;;;;;;5.30;4.23;;;;;;;11.93;64.39;94065.06;5047772;28;20245;-70
2024/01/19 09:30:44;;;;;;;10.20;5.05;;;;;;;11.96;64.09;94062.88;5046256;28;20225;-71
2024/01/19 09:33:10;;;;;;;7.00;5.13;;;;;;;11.94;64.34;94059.59;5051582;28;20213;-72
2024/01/19 09:35:37;;;;;;;8.30;5.17;;;;;;;11.93;64.59;94051.91;5051640;28;20205;-71
2024/01/19 09:38:02;;;;;;;7.30;5.03;;;;;;;11.99;64.11;94053.78;5051824;28;20181;-72
2024/01/19 09:40:27;;;;;;;9.38;5.22;;;;;;;11.98;64.30;94063.53;5065874;28;20228;-71
2024/01/19 09:42:57;;;;;;;8.20;4.80;;;;;;;12.14;64.60;94046.69;5050134;28;20272;-72
2024/01/19 09:45:26;;;;;;;6.03;4.72;;;;;;;12.32;63.22;94044.47;5049392;28;20221;-74
2024/01/19 09:47:54;;;;;;;8.57;6.88;;;;;;;12.44;63.61;94047.41;5047473;28;20190;-75
2024/01/19 09:50:25;;;;;;;10.13;5.10;;;;;;;12.73;61.93;94046.50;5052172;28;20247;-74
2024/01/19 09:53:01;;;;;;;8.10;5.37;;;;;;;12.47;62.39;94046.22;5052941;28;20232;-74
2024/01/19 09:55:29;;;;;;;8.13;6.10;;;;;;;12.45;62.43;94042.97;5044417;28;20218;-76
2024/01/19 09:57:56;;;;;;;10.13;7.40;;;;;;;12.30;62.80;94051.75;5064518;28;20237;-78
2024/01/19 10:00:22;;;;;;;9.77;7.43;;;;;;;12.30;63.40;94046.47;5051475;28;20233;-80
2024/01/19 10:02:49;;;;;;;10.07;6.90;;;;;;;12.38;63.53;94050.00;5052593;28;20197;-79
2024/01/19 10:05:16;;;;;;;10.20;7.47;;;;;;;12.36;63.45;94045.72;5047647;28;20175;-79
2024/01/19 10:07:45;;;;;;;9.40;7.80;;;;;;;12.42;63.55;94045.97;5051215;28;20225;-79
2024/01/19 10:10:15;;;;;;;9.13;7.03;;;;;;;12.39;63.82;94030.53;5051342;28;20239;-77
2024/01/19 10:12:41;;;;;;;9.65;7.50;;;;;;;12.47;63.06;94033.84;5051781;28;20221;-74
2024/01/19 10:15:11;;;;;;;9.10;7.63;;;;;;;12.53;63.16;94037.56;5050213;28;20259;-75
2024/01/19 10:17:37;;;;;;;12.40;7.93;;;;;;;12.58;63.20;94024.63;5047775;28;20189;-75
2024/01/19 10:20:04;;;;;;;15.48;8.10;;;;;;;12.56;63.21;94013.44;5047774;28;20177;-77
2024/01/19 10:22:30;;;;;;;13.13;8.82;;;;;;;12.69;62.84;94016.22;5049786;28;20217;-76
2024/01/19 10:25:10;;;;;;;14.38;8.82;;;;;;;12.67;62.77;94020.03;5052005;28;20243;-76
2024/01/19 10:27:47;;;;;;;17.20;9.10;;;;;;;12.83;62.84;94011.06;5064764;28;20221;-77
2024/01/19 10:30:17;;;;;;;15.60;9.57;;;;;;;12.63;62.58;94008.25;5043670;28;20235;-78
2024/01/19 10:32:45;;;;;;;13.17;9.60;;;;;;;12.65;62.31;94001.78;5051206;28;20239;-81
2024/01/19 10:35:14;;;;;;;15.30;9.60;;;;;;;12.71;62.30;93984.38;5050942;28;20209;-79
2024/01/19 10:37:39;;;;;;;16.40;10.70;;;;;;;12.63;62.94;93990.59;5049581;28;20217;-81
2024/01/19 10:40:28;;;;;;;16.20;9.48;;;;;;;12.47;63.14;93991.66;5048072;28;20225;-75
2024/01/19 10:42:56;;;;;;;16.42;9.85;;;;;;;12.46;63.31;93983.97;5062151;28;20221;-75
2024/01/19 10:45:28;;;;;;;12.80;9.43;;;;;;;12.45;62.88;93984.97;5051171;28;20300;-76
2024/01/19 10:48:01;;;;;;;14.13;9.90;;;;;;;12.47;63.35;93988.22;5048782;28;20270;-73
2024/01/19 10:50:28;;;;;;;15.05;9.45;;;;;;;12.57;63.28;93984.28;5049549;28;20244;-76
2024/01/19 10:52:55;;;;;;;10.93;8.93;;;;;;;12.59;62.85;93955.09;5048276;28;20342;-74
2024/01/19 10:55:28;;;;;;;17.02;11.48;;;;;;;12.84;62.36;93960.75;5035302;28;20226;-75
2024/01/19 10:57:56;;;;;;;14.45;12.45;;;;;;;12.73;63.05;93961.28;5036975;28;20240;-76
2024/01/19 11:00:23;;;;;;;15.93;11.93;;;;;;;12.23;64.65;93955.97;5049665;28;20274;-76
2024/01/19 11:02:54;;;;;;;14.73;11.05;;;;;;;12.25;64.42;93956.59;5071153;28;20221;-76
2024/01/19 11:05:19;;;;;;;14.10;10.15;;;;;;;12.33;64.08;93953.03;5052761;28;20177;-77
2024/01/19 11:07:50;;;;;;;15.13;10.02;;;;;;;12.43;64.08;93952.69;5051402;28;20286;-77
2024/01/19 11:10:15;;;;;;;10.50;9.07;;;;;;;12.77;63.15;93950.13;5044133;28;20507;-77
2024/01/19 11:12:49;;;;;;;11.13;7.88;;;;;;;13.02;62.58;93960.28;5054622;28;20235;-78
2024/01/19 11:15:26;;;;;;;11.68;8.07;;;;;;;13.44;61.58;93942.69;5052319;28;20237;-77
2024/01/19 11:17:53;;;;;;;13.35;7.88;;;;;;;13.64;61.04;93948.88;5049098;28;20192;-76
2024/01/19 11:20:22;;;;;;;10.98;8.02;;;;;;;13.79;60.17;93945.28;5053610;28;20188;-76
2024/01/19 11:22:48;;;;;;;12.95;7.65;;;;;;;13.67;60.26;93956.41;5061900;28;20210;-76
2024/01/19 11:25:18;;;;;;;11.88;8.48;;;;;;;13.75;60.49;93951.97;5053706;28;20221;-75
2024/01/19 11:27:51;;;;;;;11.77;8.10;;;;;;;13.92;60.42;93955.88;5026584;28;20213;-71
2024/01/19 11:30:32;;;;;;;11.27;7.97;;;;;;;14.25;60.18;93965.78;5051917;28;20277;-70